Time;durP1;ratioP1;P1;durP2;ratioP2;P2;SDS_P1;SDS_P2;PMS_P1;PMS_P2;Temp;Humidity;BMP_temperature;BMP_pressure;BME280_temperature;BME280_humidity;BME280_pressure;Samples;Min_cycle;Max_cycle;Signal;HPM_P1;HPM_P2
2024/02/24 00:01:19;;;;;;;9.32;2.78;;;;;;;;;;4973216;28;20194;-62
2024/02/24 00:04:06;;;;;;;12.85;2.28;;;;;;;;;;4974785;28;20061;-63
2024/02/24 00:07:00;;;;;;;16.00;3.50;;;;;;;;;;4972300;28;20058;-63
2024/02/24 00:09:47;;;;;;;19.85;3.17;;;;;;;;;;4978348;28;21539;-63
2024/02/24 00:12:41;;;;;;;13.00;2.83;;;;;;;;;;4979102;28;20383;-63
2024/02/24 00:15:28;;;;;;;20.02;2.55;;;;;;;;;;4976026;28;20113;-63
2024/02/24 00:18:18;;;;;;;20.75;2.83;;;;;;;;;;4992020;28;20116;-63
2024/02/24 00:20:45;;;;;;;15.10;2.92;;;;;;;;;;4999425;28;20152;-62
2024/02/24 00:23:20;;;;;;;15.88;2.83;;;;;;;;;;4971692;28;20062;-62
2024/02/24 00:25:47;;;;;;;12.85;2.05;;;;;;;;;;4996156;28;20085;-62
2024/02/24 00:28:14;;;;;;;19.45;2.45;;;;;;;;;;4998484;28;20060;-52
2024/02/24 00:30:48;;;;;;;17.77;2.58;;;;;;;;;;4998644;28;20049;-60
2024/02/24 00:33:15;;;;;;;17.88;2.67;;;;;;;;;;4993184;28;20073;-60
2024/02/24 00:36:10;;;;;;;20.73;2.67;;;;;;;;;;4999806;28;20133;-59
2024/02/24 00:38:58;;;;;;;18.02;2.58;;;;;;;;;;4997232;28;20054;-58
2024/02/24 00:41:52;;;;;;;17.02;3.50;;;;;;;;;;4996391;28;20050;-59
2024/02/24 00:44:46;;;;;;;17.25;2.80;;;;;;;;;;4995947;28;20493;-61
2024/02/24 00:47:40;;;;;;;23.10;2.65;;;;;;;;;;4996212;28;20099;-60
2024/02/24 00:50:34;;;;;;;26.83;3.17;;;;;;;;;;4999380;28;20062;-61
2024/02/24 00:53:28;;;;;;;28.25;3.20;;;;;;;;;;4995496;28;20105;-59
2024/02/24 00:56:15;;;;;;;17.88;3.33;;;;;;;;;;4997347;28;20057;-62
2024/02/24 00:59:09;;;;;;;21.65;2.60;;;;;;;;;;4999031;28;20053;-59
2024/02/24 01:01:56;;;;;;;22.25;3.20;;;;;;;;;;4999880;28;20341;-60
2024/02/24 01:04:52;;;;;;;18.42;2.92;;;;;;;;;;4992220;28;20065;-60
2024/02/24 01:07:37;;;;;;;17.17;3.08;;;;;;;;;;4994941;28;20049;-57
2024/02/24 01:10:31;;;;;;;22.38;3.97;;;;;;;;;;4997083;28;20045;-60
2024/02/24 01:13:18;;;;;;;16.98;2.47;;;;;;;;;;4991801;28;20124;-62
2024/02/24 01:16:26;;;;;;;22.25;3.20;;;;;;;;;;4996829;28;20152;-62
2024/02/24 01:19:20;;;;;;;20.50;3.58;;;;;;;;;;4997367;28;20057;-62
2024/02/24 01:22:14;;;;;;;21.73;2.97;;;;;;;;;;4993482;28;20465;-60
2024/02/24 01:25:01;;;;;;;17.33;3.45;;;;;;;;;;4998098;28;20127;-63
2024/02/24 01:27:55;;;;;;;18.77;3.08;;;;;;;;;;4994827;28;20104;-64
2024/02/24 01:30:42;;;;;;;24.40;3.10;;;;;;;;;;4991200;28;20104;-64
2024/02/24 01:33:36;;;;;;;19.42;3.35;;;;;;;;;;4995088;28;20061;-64
2024/02/24 01:36:24;;;;;;;34.13;4.60;;;;;;;;;;4989026;28;20046;-64
2024/02/24 01:39:18;;;;;;;23.40;3.10;;;;;;;;;;4995459;28;20464;-64
2024/02/24 01:42:05;;;;;;;19.38;3.17;;;;;;;;;;4996161;28;20190;-51
2024/02/24 01:44:59;;;;;;;23.50;2.83;;;;;;;;;;4997086;28;20058;-49
2024/02/24 01:47:46;;;;;;;15.00;2.65;;;;;;;;;;4992809;28;20886;-52
2024/02/24 01:50:40;;;;;;;17.33;2.75;;;;;;;;;;4995653;28;20062;-52
2024/02/24 01:53:30;;;;;;;17.20;3.92;;;;;;;;;;4989663;28;20073;-63
2024/02/24 01:56:27;;;;;;;17.25;3.00;;;;;;;;;;5001044;28;21048;-56
2024/02/24 01:59:15;;;;;;;17.08;2.97;;;;;;;;;;4990457;28;20070;-55
2024/02/24 02:02:09;;;;;;;16.95;3.05;;;;;;;;;;4997238;28;20519;-57
2024/02/24 02:04:56;;;;;;;16.90;3.80;;;;;;;;;;4994210;28;20055;-50
2024/02/24 02:07:50;;;;;;;25.70;3.13;;;;;;;;;;4996130;28;20054;-55
2024/02/24 02:10:48;;;;;;;18.42;2.85;;;;;;;;;;4993585;28;20073;-61
2024/02/24 02:13:42;;;;;;;9.23;3.25;;;;;;;;;;4993543;28;20136;-61
2024/02/24 02:16:36;;;;;;;20.17;3.17;;;;;;;;;;4986061;28;20469;-61
2024/02/24 02:19:35;;;;;;;16.55;2.90;;;;;;;;;;4993598;28;20073;-61
2024/02/24 02:22:24;;;;;;;16.33;3.13;;;;;;;;;;4996270;28;20054;-63
2024/02/24 02:25:18;;;;;;;13.50;2.75;;;;;;;;;;4992993;28;20101;-63
2024/02/24 02:28:05;;;;;;;17.15;2.83;;;;;;;;;;4991928;28;20116;-63
2024/02/24 02:31:00;;;;;;;21.02;3.35;;;;;;;;;;4996221;28;20050;-62
2024/02/24 02:33:52;;;;;;;18.63;3.00;;;;;;;;;;4994826;28;20104;-63
2024/02/24 02:36:47;;;;;;;10.13;3.08;;;;;;;;;;4993069;28;20214;-63
2024/02/24 02:39:34;;;;;;;18.38;2.88;;;;;;;;;;4996850;28;20117;-63
2024/02/24 02:42:28;;;;;;;12.43;2.90;;;;;;;;;;4996833;28;20053;-63
2024/02/24 02:45:15;;;;;;;16.60;3.03;;;;;;;;;;4989960;28;20054;-63
2024/02/24 02:48:10;;;;;;;19.60;2.88;;;;;;;;;;4993109;28;20077;-64
2024/02/24 02:50:57;;;;;;;24.20;3.47;;;;;;;;;;4992025;28;21034;-65
2024/02/24 02:53:51;;;;;;;15.07;3.13;;;;;;;;;;4994773;28;20081;-64
2024/02/24 02:56:38;;;;;;;12.60;2.80;;;;;;;;;;4994890;28;20057;-64
2024/02/24 02:59:35;;;;;;;19.20;2.80;;;;;;;;;;4991831;28;20054;-64
2024/02/24 03:02:29;;;;;;;12.15;2.47;;;;;;;;;;4994301;28;20116;-64
2024/02/24 03:05:23;;;;;;;15.52;2.90;;;;;;;;;;4994317;28;20058;-64
2024/02/24 03:08:17;;;;;;;17.52;3.00;;;;;;;;;;4993848;28;20054;-60
2024/02/24 03:11:04;;;;;;;12.75;2.70;;;;;;;;;;4994196;28;20104;-60
2024/02/24 03:13:58;;;;;;;12.63;2.63;;;;;;;;;;4991866;28;20060;-61
2024/02/24 03:16:45;;;;;;;25.30;3.63;;;;;;;;;;4991246;28;20049;-61
2024/02/24 03:19:40;;;;;;;17.90;3.35;;;;;;;;;;4992942;28;20046;-61
2024/02/24 03:22:27;;;;;;;16.75;3.30;;;;;;;;;;4993756;28;20054;-61
2024/02/24 03:25:21;;;;;;;22.85;3.83;;;;;;;;;;4995246;28;20054;-61
2024/02/24 03:28:08;;;;;;;18.17;3.67;;;;;;;;;;4994060;28;20061;-60
2024/02/24 03:31:02;;;;;;;15.68;3.42;;;;;;;;;;4995857;28;20116;-59
2024/02/24 03:33:49;;;;;;;13.18;3.55;;;;;;;;;;4992682;28;20070;-60
2024/02/24 03:36:43;;;;;;;15.52;3.65;;;;;;;;;;4992909;28;20845;-67
2024/02/24 03:39:31;;;;;;;12.38;3.30;;;;;;;;;;4992267;28;20045;-47
2024/02/24 03:42:24;;;;;;;14.70;4.05;;;;;;;;;;4995026;28;20424;-50
2024/02/24 03:45:11;;;;;;;16.27;3.42;;;;;;;;;;4997319;28;20058;-46
2024/02/24 03:48:05;;;;;;;12.57;3.53;;;;;;;;;;5001045;28;20074;-51
2024/02/24 03:50:52;;;;;;;14.68;3.10;;;;;;;;;;4996681;28;20133;-47
2024/02/24 03:53:46;;;;;;;13.15;3.50;;;;;;;;;;4998738;28;20502;-61
2024/02/24 03:56:40;;;;;;;17.17;3.33;;;;;;;;;;4999400;28;20581;-61
2024/02/24 03:59:27;;;;;;;21.52;3.55;;;;;;;;;;4999180;28;20513;-60
2024/02/24 04:02:21;;;;;;;30.10;4.38;;;;;;;;;;5000166;28;20519;-59
2024/02/24 04:05:08;;;;;;;12.57;3.83;;;;;;;;;;4995384;28;20057;-58
2024/02/24 04:08:02;;;;;;;19.67;4.10;;;;;;;;;;4996451;28;20063;-59
2024/02/24 04:10:49;;;;;;;18.45;4.03;;;;;;;;;;4998084;28;20136;-59
2024/02/24 04:13:43;;;;;;;19.42;4.78;;;;;;;;;;4998415;28;20042;-60
2024/02/24 04:16:43;;;;;;;14.77;3.40;;;;;;;;;;4993606;28;20112;-58
2024/02/24 04:19:37;;;;;;;25.27;4.60;;;;;;;;;;4998132;28;20501;-57
2024/02/24 04:22:31;;;;;;;22.85;5.28;;;;;;;;;;4998543;28;20054;-63
2024/02/24 04:25:25;;;;;;;19.25;5.10;;;;;;;;;;4993753;28;20054;-63
2024/02/24 04:28:19;;;;;;;19.27;5.18;;;;;;;;;;4997295;28;20065;-63
2024/02/24 04:31:13;;;;;;;22.70;5.32;;;;;;;;;;4997959;28;20050;-63
2024/02/24 04:34:00;;;;;;;24.80;5.10;;;;;;;;;;4995974;28;20155;-65
2024/02/24 04:36:54;;;;;;;18.52;5.75;;;;;;;;;;5001157;28;20054;-60
2024/02/24 04:39:41;;;;;;;20.92;5.28;;;;;;;;;;4994713;28;20080;-61
2024/02/24 04:42:35;;;;;;;18.40;5.82;;;;;;;;;;4998211;28;20171;-59
2024/02/24 04:45:22;;;;;;;20.13;4.88;;;;;;;;;;4997672;28;20046;-60
2024/02/24 04:48:16;;;;;;;17.45;5.35;;;;;;;;;;4997709;28;20050;-60
2024/02/24 04:51:03;;;;;;;31.85;6.35;;;;;;;;;;4995579;28;20062;-61
2024/02/24 04:53:57;;;;;;;25.45;5.45;;;;;;;;;;4997919;28;20054;-59
2024/02/24 04:56:51;;;;;;;20.95;5.38;;;;;;;;;;4999381;28;20112;-61
2024/02/24 04:59:38;;;;;;;18.10;5.50;;;;;;;;;;4997023;28;20502;-59
2024/02/24 05:02:32;;;;;;;20.35;5.20;;;;;;;;;;4999234;28;20050;-63
2024/02/24 05:05:19;;;;;;;21.95;5.90;;;;;;;;;;4997000;28;20132;-64
2024/02/24 05:08:13;;;;;;;18.20;4.63;;;;;;;;;;4996570;28;20108;-64
2024/02/24 05:11:00;;;;;;;17.60;4.82;;;;;;;;;;4987649;28;20619;-64
2024/02/24 05:13:54;;;;;;;25.42;6.13;;;;;;;;;;4997785;28;20079;-64
2024/02/24 05:16:48;;;;;;;17.40;5.13;;;;;;;;;;4993522;28;20062;-63
2024/02/24 05:19:49;;;;;;;16.83;4.82;;;;;;;;;;4994227;28;20057;-59
2024/02/24 05:22:36;;;;;;;19.02;4.57;;;;;;;;;;4995040;28;20046;-57
2024/02/24 05:25:30;;;;;;;18.38;5.80;;;;;;;;;;4997688;28;20050;-61
2024/02/24 05:28:17;;;;;;;18.45;4.40;;;;;;;;;;4996111;28;20335;-59
2024/02/24 05:31:11;;;;;;;20.23;4.90;;;;;;;;;;4996705;28;20108;-67
2024/02/24 05:33:58;;;;;;;18.52;4.22;;;;;;;;;;4995721;28;20049;-57
2024/02/24 05:36:53;;;;;;;17.58;4.85;;;;;;;;;;4990405;28;20048;-54
2024/02/24 05:39:39;;;;;;;22.67;5.32;;;;;;;;;;4995572;28;20132;-54
2024/02/24 05:42:33;;;;;;;19.75;4.95;;;;;;;;;;4993866;28;20050;-58
2024/02/24 05:45:20;;;;;;;19.33;4.68;;;;;;;;;;4997774;28;20050;-53
2024/02/24 05:48:14;;;;;;;22.15;5.13;;;;;;;;;;4997183;28;20582;-61
2024/02/24 05:51:01;;;;;;;21.33;5.93;;;;;;;;;;4996610;28;20155;-57
2024/02/24 05:53:55;;;;;;;18.90;4.40;;;;;;;;;;4995310;28;20054;-60
2024/02/24 05:56:42;;;;;;;18.65;4.80;;;;;;;;;;4996701;28;20054;-61
2024/02/24 05:59:36;;;;;;;15.80;4.28;;;;;;;;;;4996579;28;20045;-62
2024/02/24 06:02:23;;;;;;;13.98;4.57;;;;;;;;;;4995834;28;20066;-65
2024/02/24 06:05:17;;;;;;;18.77;4.68;;;;;;;;;;4996638;28;20625;-65
2024/02/24 06:08:05;;;;;;;10.68;4.40;;;;;;;;;;4997201;28;20058;-65
2024/02/24 06:10:59;;;;;;;14.20;4.18;;;;;;;;;;4994559;28;20501;-65
2024/02/24 06:13:53;;;;;;;21.73;4.00;;;;;;;;;;4995753;28;20497;-65
2024/02/24 06:16:47;;;;;;;19.38;4.25;;;;;;;;;;4990789;28;20050;-63
2024/02/24 06:19:48;;;;;;;12.23;4.20;;;;;;;;;;4994806;28;20141;-63
2024/02/24 06:22:35;;;;;;;17.77;4.05;;;;;;;;;;4999026;28;20505;-63
2024/02/24 06:25:30;;;;;;;14.23;5.07;;;;;;;;;;4993978;28;20046;-63
2024/02/24 06:28:23;;;;;;;19.42;5.95;;;;;;;;;;4993710;28;20061;-67
2024/02/24 06:31:18;;;;;;;17.73;4.47;;;;;;;;;;4994677;28;20060;-63
2024/02/24 06:34:11;;;;;;;21.83;5.13;;;;;;;;;;4993896;28;20069;-63
2024/02/24 06:37:05;;;;;;;20.75;4.95;;;;;;;;;;4996449;28;20064;-63
2024/02/24 06:39:52;;;;;;;27.30;6.25;;;;;;;;;;4995685;28;20058;-63
2024/02/24 06:42:59;;;;;;;18.20;5.53;;;;;;;;;;4994917;28;20137;-63
2024/02/24 06:45:46;;;;;;;24.88;6.93;;;;;;;;;;4994874;28;20105;-65
2024/02/24 06:48:40;;;;;;;25.48;6.32;;;;;;;;;;4993568;28;20115;-65
2024/02/24 06:51:27;;;;;;;24.00;6.80;;;;;;;;;;4995833;28;20050;-66
2024/02/24 06:54:21;;;;;;;29.00;7.93;;;;;;;;;;4994679;28;20061;-65
2024/02/24 06:57:08;;;;;;;24.48;7.97;;;;;;;;;;4993097;28;20088;-65
2024/02/24 07:00:02;;;;;;;22.95;6.97;;;;;;;;;;4994194;28;20069;-66
2024/02/24 07:02:54;;;;;;;19.75;7.55;;;;;;;;;;4994811;28;20049;-50
2024/02/24 07:05:46;;;;;;;26.77;6.50;;;;;;;;;;4994422;28;20096;-51
2024/02/24 07:08:33;;;;;;;27.35;7.43;;;;;;;;;;4993347;28;20054;-50
2024/02/24 07:11:27;;;;;;;22.70;7.25;;;;;;;;;;4997273;28;20096;-52
2024/02/24 07:14:14;;;;;;;30.25;8.38;;;;;;;;;;4997266;28;20046;-50
2024/02/24 07:17:15;;;;;;;24.98;7.35;;;;;;;;;;4993822;28;20086;-49
2024/02/24 07:20:09;;;;;;;26.98;8.57;;;;;;;;;;4996276;28;20060;-48
2024/02/24 07:23:03;;;;;;;25.15;8.73;;;;;;;;;;4995528;28;20054;-64
2024/02/24 07:25:50;;;;;;;22.50;7.03;;;;;;;;;;4988973;28;20054;-67
2024/02/24 07:28:44;;;;;;;22.08;8.25;;;;;;;;;;4993393;28;20054;-67
2024/02/24 07:31:31;;;;;;;21.52;8.02;;;;;;;;;;4994459;28;20057;-67
2024/02/24 07:34:25;;;;;;;23.38;8.27;;;;;;;;;;4993379;28;20054;-67
2024/02/24 07:37:13;;;;;;;28.52;8.25;;;;;;;;;;4991994;28;20065;-66
2024/02/24 07:40:07;;;;;;;18.98;7.60;;;;;;;;;;4994807;28;20050;-67
2024/02/24 07:42:56;;;;;;;22.73;7.03;;;;;;;;;;4995532;28;20050;-61
2024/02/24 07:45:50;;;;;;;20.05;7.78;;;;;;;;;;4994674;28;20093;-60
2024/02/24 07:48:38;;;;;;;18.95;7.57;;;;;;;;;;4990683;28;20058;-61
2024/02/24 07:51:31;;;;;;;26.55;7.75;;;;;;;;;;4990779;28;20159;-61
2024/02/24 07:54:18;;;;;;;20.90;8.18;;;;;;;;;;4995313;28;20058;-61
2024/02/24 07:57:12;;;;;;;27.83;9.60;;;;;;;;;;4995330;28;20053;-61
2024/02/24 08:00:00;;;;;;;26.07;9.17;;;;;;;;;;4995287;28;20054;-48
2024/02/24 08:02:54;;;;;;;23.63;7.90;;;;;;;;;;4991756;28;20050;-61
2024/02/24 08:05:41;;;;;;;18.98;7.55;;;;;;;;;;4994118;28;20057;-62
2024/02/24 08:08:36;;;;;;;31.30;8.90;;;;;;;;;;4993122;28;20057;-62
2024/02/24 08:11:24;;;;;;;20.80;7.50;;;;;;;;;;4993484;28;20185;-62
2024/02/24 08:14:17;;;;;;;24.35;7.15;;;;;;;;;;4994574;28;20046;-64
2024/02/24 08:17:11;;;;;;;19.90;7.68;;;;;;;;;;4982123;28;20132;-62
2024/02/24 08:20:07;;;;;;;23.20;7.68;;;;;;;;;;4989714;28;20051;-67
2024/02/24 08:22:54;;;;;;;;;;;;;;;;;;4990632;28;20050;-66
2024/02/24 08:25:47;;;;;;;23.55;6.53;;;;;;;;;;4991831;28;19968;-66
2024/02/24 08:28:34;;;;;;;19.55;6.90;;;;;;;;;;4979292;28;20061;-66
2024/02/24 08:31:28;;;;;;;22.65;7.22;;;;;;;;;;4997874;28;20104;-67
2024/02/24 08:34:15;;;;;;;14.98;6.75;;;;;;;;;;4994118;28;20112;-66
2024/02/24 08:37:09;;;;;;;13.57;6.18;;;;;;;;;;4995897;28;20059;-51
2024/02/24 08:39:56;;;;;;;22.88;6.25;;;;;;;;;;4996210;28;20502;-58
2024/02/24 08:42:51;;;;;;;24.48;5.60;;;;;;;;;;4987528;28;20962;-59
2024/02/24 08:45:39;;;;;;;23.67;5.97;;;;;;;;;;4994421;28;20056;-58
2024/02/24 08:48:36;;;;;;;19.58;6.43;;;;;;;;;;4995148;28;20066;-56
2024/02/24 08:51:23;;;;;;;21.42;6.10;;;;;;;;;;4995536;28;20575;-58
2024/02/24 08:54:20;;;;;;;21.52;6.32;;;;;;;;;;4997796;28;20046;-52
2024/02/24 08:57:07;;;;;;;14.55;5.50;;;;;;;;;;4995965;28;20141;-60
2024/02/24 09:00:01;;;;;;;17.27;5.85;;;;;;;;;;4996945;28;20072;-60
2024/02/24 09:02:48;;;;;;;20.38;6.15;;;;;;;;;;4984438;28;20050;-60
2024/02/24 09:05:42;;;;;;;17.67;5.75;;;;;;;;;;4996660;28;20057;-60
2024/02/24 09:08:37;;;;;;;15.02;5.38;;;;;;;;;;4994641;28;20177;-60
2024/02/24 09:11:31;;;;;;;18.58;5.55;;;;;;;;;;4995807;28;20502;-58
2024/02/24 09:14:25;;;;;;;17.00;5.80;;;;;;;;;;4996360;28;20046;-55
2024/02/24 09:17:19;;;;;;;18.95;6.20;;;;;;;;;;4996206;28;20066;-54
2024/02/24 09:20:12;;;;;;;15.98;5.75;;;;;;;;;;4996761;28;20425;-54
2024/02/24 09:22:59;;;;;;;14.90;5.25;;;;;;;;;;4996956;28;20057;-55
2024/02/24 09:25:53;;;;;;;13.05;5.88;;;;;;;;;;4998393;28;20050;-55
2024/02/24 09:28:40;;;;;;;18.70;5.60;;;;;;;;;;4999289;28;20077;-55
2024/02/24 09:31:34;;;;;;;13.55;4.78;;;;;;;;;;4996141;28;20061;-57
2024/02/24 09:34:21;;;;;;;22.10;5.70;;;;;;;;;;4980290;28;20204;-51
2024/02/24 09:37:15;;;;;;;13.25;4.95;;;;;;;;;;4990425;28;20054;-51
2024/02/24 09:40:09;;;;;;;18.17;5.18;;;;;;;;;;4999842;28;20057;-56
2024/02/24 09:43:04;;;;;;;12.95;5.15;;;;;;;;;;4996363;28;20100;-53
2024/02/24 09:45:58;;;;;;;15.10;5.32;;;;;;;;;;5001007;28;20536;-50
2024/02/24 09:48:46;;;;;;;11.48;4.68;;;;;;;;;;4998746;28;20054;-58
2024/02/24 09:51:43;;;;;;;22.60;5.13;;;;;;;;;;4990606;28;20519;-56
2024/02/24 09:54:13;;;;;;;15.35;4.93;;;;;;;;;;4993288;28;20312;-57
2024/02/24 09:57:07;;;;;;;10.30;4.60;;;;;;;;;;4996532;28;20108;-54
2024/02/24 09:59:55;;;;;;;12.70;4.30;;;;;;;;;;4996098;28;20058;-57
2024/02/24 10:02:49;;;;;;;15.93;5.10;;;;;;;;;;4995667;28;20416;-55
2024/02/24 10:05:39;;;;;;;15.70;4.90;;;;;;;;;;4996685;28;20514;-57
2024/02/24 10:08:31;;;;;;;15.68;4.50;;;;;;;;;;4997433;28;20053;-64
2024/02/24 10:11:19;;;;;;;14.10;4.18;;;;;;;;;;4994594;28;20060;-47
2024/02/24 10:14:12;;;;;;;15.15;4.38;;;;;;;;;;4995069;28;20112;-46
2024/02/24 10:17:00;;;;;;;15.05;4.10;;;;;;;;;;4997761;28;20138;-45
2024/02/24 10:20:00;;;;;;;9.93;3.38;;;;;;;;;;4955205;28;20657;-44
2024/02/24 10:22:47;;;;;;;10.90;4.68;;;;;;;;;;4953560;28;20069;-45
2024/02/24 10:25:41;;;;;;;17.48;4.00;;;;;;;;;;4957408;28;20062;-62
2024/02/24 10:28:29;;;;;;;11.30;3.83;;;;;;;;;;4947978;28;20062;-62
2024/02/24 10:31:23;;;;;;;14.65;4.45;;;;;;;;;;4957822;28;20050;-62
2024/02/24 10:34:11;;;;;;;15.05;4.32;;;;;;;;;;4955190;28;20070;-62
2024/02/24 10:37:07;;;;;;;15.25;4.82;;;;;;;;;;4954664;28;20138;-62
2024/02/24 10:40:22;;;;;;;11.77;4.03;;;;;;;;;;4956564;28;20489;-62
2024/02/24 10:43:09;;;;;;;16.08;4.90;;;;;;;;;;4959208;28;20063;-62
2024/02/24 10:46:03;;;;;;;13.57;4.38;;;;;;;;;;4958836;28;20058;-51
2024/02/24 10:48:50;;;;;;;20.10;5.07;;;;;;;;;;4954430;28;20055;-64
2024/02/24 10:51:48;;;;;;;14.65;4.15;;;;;;;;;;4956747;28;20465;-63
2024/02/24 10:54:35;;;;;;;11.70;3.97;;;;;;;;;;4957934;28;20062;-64
2024/02/24 10:57:29;;;;;;;14.02;3.92;;;;;;;;;;4959464;28;20066;-64
2024/02/24 11:00:23;;;;;;;14.18;3.70;;;;;;;;;;4958589;28;20050;-65
2024/02/24 11:03:19;;;;;;;16.58;4.43;;;;;;;;;;4961075;28;21393;-60
2024/02/24 11:06:07;;;;;;;13.00;3.88;;;;;;;;;;4955966;28;20072;-58
2024/02/24 11:09:00;;;;;;;14.23;3.58;;;;;;;;;;4953363;28;20059;-57
2024/02/24 11:11:48;;;;;;;13.10;3.65;;;;;;;;;;4954428;28;20057;-59
2024/02/24 11:14:43;;;;;;;16.10;3.45;;;;;;;;;;4960409;28;20138;-58
2024/02/24 11:17:47;;;;;;;18.90;4.13;;;;;;;;;;4962862;28;20058;-59
2024/02/24 11:20:47;;;;;;;9.75;3.53;;;;;;;;;;4994787;28;20067;-51
2024/02/24 11:23:42;;;;;;;11.00;3.75;;;;;;;;;;4998904;28;20567;-64
2024/02/24 11:26:33;;;;;;;8.85;2.80;;;;;;;;;;4996055;28;20045;-64
2024/02/24 11:29:19;;;;;;;9.20;2.72;;;;;;;;;;4993124;28;20217;-64
2024/02/24 11:32:15;;;;;;;11.80;3.25;;;;;;;;;;4997265;28;20338;-64
2024/02/24 11:35:01;;;;;;;17.15;3.50;;;;;;;;;;4992864;28;20542;-64
2024/02/24 11:37:56;;;;;;;15.60;3.03;;;;;;;;;;4994231;28;20088;-63
2024/02/24 11:40:47;;;;;;;8.13;2.80;;;;;;;;;;4998963;28;20058;-63
2024/02/24 11:43:37;;;;;;;11.80;3.00;;;;;;;;;;4999220;28;20046;-63
2024/02/24 11:46:25;;;;;;;11.40;3.42;;;;;;;;;;4996862;28;20054;-64
2024/02/24 11:49:19;;;;;;;12.30;3.42;;;;;;;;;;4996377;28;20104;-64
2024/02/24 11:52:06;;;;;;;7.13;3.60;;;;;;;;;;5000509;28;20041;-63
2024/02/24 11:55:00;;;;;;;8.45;3.80;;;;;;;;;;4997468;28;20051;-63
2024/02/24 11:57:47;;;;;;;8.65;3.30;;;;;;;;;;5001568;28;20046;-55
2024/02/24 12:00:41;;;;;;;16.60;4.10;;;;;;;;;;4996630;28;20057;-54
2024/02/24 12:03:35;;;;;;;15.13;4.75;;;;;;;;;;4995973;28;20049;-57
2024/02/24 12:06:24;;;;;;;9.52;3.63;;;;;;;;;;4997435;28;20220;-57
2024/02/24 12:09:17;;;;;;;17.98;4.57;;;;;;;;;;5004359;28;20081;-54
2024/02/24 12:12:04;;;;;;;9.85;3.40;;;;;;;;;;5002230;28;20417;-60
2024/02/24 12:14:58;;;;;;;12.90;4.30;;;;;;;;;;5003552;28;21560;-60
2024/02/24 12:17:52;;;;;;;10.90;4.32;;;;;;;;;;4998835;28;20084;-61
2024/02/24 12:20:52;;;;;;;;;;;;;;;;;;5001974;28;20077;-61
2024/02/24 12:23:40;;;;;;;12.05;3.40;;;;;;;;;;4999217;28;19922;-61
2024/02/24 12:26:33;;;;;;;12.07;3.58;;;;;;;;;;4999152;28;20540;-61
2024/02/24 12:29:21;;;;;;;13.27;4.68;;;;;;;;;;5000111;28;20140;-57
2024/02/24 12:32:14;;;;;;;11.45;4.70;;;;;;;;;;5002008;28;20112;-57
2024/02/24 12:35:05;;;;;;;16.48;4.80;;;;;;;;;;5001288;28;20136;-54
2024/02/24 12:37:59;;;;;;;9.95;4.35;;;;;;;;;;5000076;28;20058;-53
2024/02/24 12:40:47;;;;;;;13.25;4.35;;;;;;;;;;5003150;28;20046;-54
2024/02/24 12:43:41;;;;;;;13.32;4.28;;;;;;;;;;5000105;28;20139;-62
2024/02/24 12:46:28;;;;;;;9.40;4.75;;;;;;;;;;4999504;28;20053;-62
2024/02/24 12:49:22;;;;;;;18.90;6.30;;;;;;;;;;5001757;28;20545;-62
2024/02/24 12:52:09;;;;;;;13.27;5.88;;;;;;;;;;5002046;28;20061;-62
2024/02/24 12:55:03;;;;;;;13.55;5.20;;;;;;;;;;5005858;28;20112;-60
2024/02/24 12:57:50;;;;;;;7.72;4.43;;;;;;;;;;4998226;28;20054;-65
2024/02/24 13:00:44;;;;;;;13.10;4.95;;;;;;;;;;5002397;28;20049;-64
2024/02/24 13:03:31;;;;;;;10.25;4.80;;;;;;;;;;4999677;28;20140;-66
2024/02/24 13:06:12;;;;;;;10.25;4.38;;;;;;;;;;5001870;28;20525;-65
2024/02/24 13:08:39;;;;;;;11.00;4.82;;;;;;;;;;5000647;28;20062;-65
2024/02/24 13:11:13;;;;;;;8.55;4.32;;;;;;;;;;5001400;28;20058;-65
2024/02/24 13:14:00;;;;;;;16.85;5.90;;;;;;;;;;4998675;28;20054;-62
2024/02/24 13:16:54;;;;;;;10.07;6.07;;;;;;;;;;4995408;28;20057;-62
2024/02/24 13:19:48;;;;;;;13.18;6.13;;;;;;;;;;4999446;28;20145;-61
2024/02/24 13:22:41;;;;;;;;;;;;;;;;;;5003299;28;20461;-61
2024/02/24 13:25:28;;;;;;;13.65;6.60;;;;;;;;;;5001367;28;19945;-62
2024/02/24 13:28:22;;;;;;;11.07;5.80;;;;;;;;;;5001065;28;20062;-61
2024/02/24 13:31:09;;;;;;;10.88;5.50;;;;;;;;;;4995623;28;20120;-58
2024/02/24 13:34:03;;;;;;;12.45;5.15;;;;;;;;;;4998766;28;20046;-64
2024/02/24 13:36:57;;;;;;;9.20;5.43;;;;;;;;;;4999858;28;20112;-64
2024/02/24 13:39:47;;;;;;;10.02;4.88;;;;;;;;;;4987356;28;20062;-64
2024/02/24 13:42:42;;;;;;;13.40;4.50;;;;;;;;;;5001055;28;20054;-65
2024/02/24 13:45:29;;;;;;;17.10;5.30;;;;;;;;;;4997771;28;20046;-63
2024/02/24 13:48:23;;;;;;;12.75;5.15;;;;;;;;;;4997833;28;20054;-63
2024/02/24 13:51:11;;;;;;;11.07;4.60;;;;;;;;;;4995089;28;20254;-57
2024/02/24 13:54:05;;;;;;;12.77;4.80;;;;;;;;;;5000281;28;20058;-52
2024/02/24 13:56:59;;;;;;;10.23;5.07;;;;;;;;;;5003803;28;20555;-53
2024/02/24 13:59:46;;;;;;;14.85;5.00;;;;;;;;;;4999962;28;20545;-53
2024/02/24 14:02:40;;;;;;;12.52;5.75;;;;;;;;;;5001033;28;20049;-52
2024/02/24 14:05:28;;;;;;;11.63;5.50;;;;;;;;;;4990168;28;20054;-51
2024/02/24 14:08:21;;;;;;;13.20;5.30;;;;;;;;;;4999069;28;20123;-57
2024/02/24 14:11:15;;;;;;;11.85;4.78;;;;;;;;;;4992316;28;20057;-56
2024/02/24 14:14:09;;;;;;;12.30;5.38;;;;;;;;;;4997463;28;20077;-56
2024/02/24 14:17:03;;;;;;;15.40;4.88;;;;;;;;;;4998053;28;20053;-58
2024/02/24 14:19:57;;;;;;;9.73;4.70;;;;;;;;;;4995512;28;20469;-56
2024/02/24 14:22:55;;;;;;;11.48;4.75;;;;;;;;;;4998377;28;20078;-55
2024/02/24 14:25:42;;;;;;;14.10;5.38;;;;;;;;;;4995689;28;20676;-58
2024/02/24 14:28:36;;;;;;;6.97;3.92;;;;;;;;;;4993206;28;20407;-62
2024/02/24 14:31:30;;;;;;;11.70;3.80;;;;;;;;;;4988253;28;20049;-62
2024/02/24 14:34:23;;;;;;;8.50;4.22;;;;;;;;;;4991765;28;20045;-63
2024/02/24 14:37:12;;;;;;;8.00;3.55;;;;;;;;;;4985897;28;20049;-62
2024/02/24 14:40:06;;;;;;;8.88;3.50;;;;;;;;;;4991490;28;20106;-63
2024/02/24 14:42:54;;;;;;;9.88;3.90;;;;;;;;;;4993576;28;20057;-62
2024/02/24 14:45:47;;;;;;;5.57;3.00;;;;;;;;;;4993516;28;20261;-58
2024/02/24 14:48:42;;;;;;;6.95;3.13;;;;;;;;;;4998201;28;20048;-62
2024/02/24 14:51:35;;;;;;;8.73;3.13;;;;;;;;;;4992458;28;20141;-62
2024/02/24 14:54:29;;;;;;;10.75;3.92;;;;;;;;;;4986689;28;20057;-63
2024/02/24 14:57:16;;;;;;;8.35;2.70;;;;;;;;;;4991898;28;20073;-62
2024/02/24 15:00:13;;;;;;;8.32;2.85;;;;;;;;;;4987312;28;20061;-62
2024/02/24 15:03:00;;;;;;;4.00;2.20;;;;;;;;;;4990448;28;20149;-64
2024/02/24 15:05:54;;;;;;;6.93;2.10;;;;;;;;;;4992249;28;20269;-48
2024/02/24 15:08:42;;;;;;;7.82;1.98;;;;;;;;;;4986949;28;20058;-45
2024/02/24 15:11:41;;;;;;;5.72;2.00;;;;;;;;;;4981636;28;20056;-45
2024/02/24 15:14:27;;;;;;;4.38;2.90;;;;;;;;;;4988963;28;20050;-48
2024/02/24 15:17:22;;;;;;;6.72;2.20;;;;;;;;;;4988712;28;20137;-47
2024/02/24 15:20:15;;;;;;;10.07;2.10;;;;;;;;;;4953997;28;20506;-45
2024/02/24 15:23:09;;;;;;;;;;;;;;;;;;4948701;28;20054;-50
2024/02/24 15:25:55;;;;;;;6.88;2.10;;;;;;;;;;4951271;28;19930;-60
2024/02/24 15:28:49;;;;;;;9.63;2.63;;;;;;;;;;4946391;28;20050;-60
2024/02/24 15:31:37;;;;;;;4.03;2.40;;;;;;;;;;4950026;28;20063;-60
2024/02/24 15:34:31;;;;;;;7.80;2.38;;;;;;;;;;4951648;28;20054;-60
2024/02/24 15:37:19;;;;;;;8.43;2.00;;;;;;;;;;4956565;28;20063;-61
2024/02/24 15:40:12;;;;;;;7.95;2.15;;;;;;;;;;4949966;28;20055;-63
2024/02/24 15:43:02;;;;;;;7.97;2.25;;;;;;;;;;4959983;28;21449;-63
2024/02/24 15:45:56;;;;;;;8.93;1.95;;;;;;;;;;4957693;28;20512;-62
2024/02/24 15:48:44;;;;;;;9.20;2.22;;;;;;;;;;4956543;28;20149;-63
2024/02/24 15:51:37;;;;;;;6.43;2.10;;;;;;;;;;4952149;28;20054;-63
2024/02/24 15:54:31;;;;;;;6.55;1.83;;;;;;;;;;4957036;28;20054;-63
2024/02/24 15:57:25;;;;;;;2.15;1.90;;;;;;;;;;4957182;28;20527;-63
2024/02/24 16:00:12;;;;;;;6.75;2.47;;;;;;;;;;4955829;28;20133;-57
2024/02/24 16:03:06;;;;;;;6.10;2.47;;;;;;;;;;4958414;28;20055;-55
2024/02/24 16:05:53;;;;;;;7.57;2.17;;;;;;;;;;4952926;28;20056;-52
2024/02/24 16:08:47;;;;;;;6.60;1.90;;;;;;;;;;4961035;28;20392;-59
2024/02/24 16:11:34;;;;;;;3.97;2.03;;;;;;;;;;4957816;28;20400;-59
2024/02/24 16:14:28;;;;;;;3.20;1.73;;;;;;;;;;4954435;28;20058;-59
2024/02/24 16:17:15;;;;;;;7.75;2.55;;;;;;;;;;4953086;28;20058;-62
2024/02/24 16:20:17;;;;;;;10.05;2.60;;;;;;;;;;4994438;28;20069;-53
2024/02/24 16:23:03;;;;;;;11.25;2.45;;;;;;;;;;4995725;28;20411;-57
2024/02/24 16:25:57;;;;;;;5.10;2.03;;;;;;;;;;4993090;28;20221;-56
2024/02/24 16:28:44;;;;;;;6.07;2.50;;;;;;;;;;4990686;28;20375;-53
2024/02/24 16:31:38;;;;;;;6.20;2.38;;;;;;;;;;4995946;28;20054;-53
2024/02/24 16:34:25;;;;;;;6.13;2.45;;;;;;;;;;4991932;28;20058;-65
2024/02/24 16:37:22;;;;;;;5.15;2.47;;;;;;;;;;4993216;28;20560;-62
2024/02/24 16:40:07;;;;;;;6.80;2.53;;;;;;;;;;4991573;28;20577;-54
2024/02/24 16:43:01;;;;;;;5.75;2.53;;;;;;;;;;4991334;28;20489;-54
2024/02/24 16:45:48;;;;;;;6.03;2.65;;;;;;;;;;4990815;28;20046;-55
2024/02/24 16:48:43;;;;;;;7.95;2.50;;;;;;;;;;4983857;28;20123;-56
2024/02/24 16:51:29;;;;;;;5.40;2.47;;;;;;;;;;4993829;28;20053;-56
2024/02/24 16:54:23;;;;;;;5.57;2.70;;;;;;;;;;4993424;28;20098;-63